Time;durP1;ratioP1;P1;durP2;ratioP2;P2;SDS_P1;SDS_P2;PMS_P1;PMS_P2;Temp;Humidity;BMP_temperature;BMP_pressure;BME280_temperature;BME280_humidity;BME280_pressure;Samples;Min_cycle;Max_cycle;Signal;HPM_P1;HPM_P2
2023/04/10 00:00:09;;;;;;;35.85;18.70;;;8.60;99.90;;;;;;5090662;28;20448;-82
2023/04/10 00:02:38;;;;;;;40.47;19.73;;;8.70;99.90;;;;;;5107981;28;20104;-82
2023/04/10 00:05:06;;;;;;;37.70;20.58;;;8.70;99.90;;;;;;5090992;28;20031;-82
2023/04/10 00:07:32;;;;;;;38.85;19.92;;;8.60;99.90;;;;;;5108383;28;20110;-81
2023/04/10 00:09:57;;;;;;;38.50;19.92;;;8.60;99.90;;;;;;5074135;28;20111;-81
2023/04/10 00:12:24;;;;;;;41.27;21.80;;;8.60;99.90;;;;;;5074084;28;20039;-82
2023/04/10 00:14:49;;;;;;;37.90;21.02;;;8.50;99.90;;;;;;5091414;28;20828;-81
2023/04/10 00:17:15;;;;;;;40.72;21.58;;;8.50;99.90;;;;;;5090527;28;20119;-81
2023/04/10 00:19:41;;;;;;;43.65;21.75;;;8.50;99.90;;;;;;5092033;28;20161;-81
2023/04/10 00:22:06;;;;;;;39.83;22.70;;;8.50;99.90;;;;;;5111369;28;20047;-81
2023/04/10 00:24:32;;;;;;;38.30;20.70;;;8.50;99.90;;;;;;5078090;28;20035;-81
2023/04/10 00:26:58;;;;;;;42.03;22.93;;;8.50;99.90;;;;;;5111185;28;20063;-81
2023/04/10 00:29:24;;;;;;;40.73;21.87;;;8.50;99.90;;;;;;5094348;28;20623;-81
2023/04/10 00:31:49;;;;;;;43.80;23.30;;;8.40;99.90;;;;;;5111855;28;20286;-81
2023/04/10 00:34:15;;;;;;;41.67;21.52;;;8.40;99.90;;;;;;5077150;28;20036;-81
2023/04/10 00:36:41;;;;;;;44.88;21.77;;;8.40;99.90;;;;;;5094200;28;20039;-81
2023/04/10 00:39:10;;;;;;;43.80;22.50;;;8.40;99.90;;;;;;5110983;28;20032;-81
2023/04/10 00:41:35;;;;;;;40.25;22.73;;;8.40;99.90;;;;;;5111029;28;20043;-81
2023/04/10 00:44:01;;;;;;;45.45;23.08;;;8.30;99.90;;;;;;5111073;28;20061;-81
2023/04/10 00:46:28;;;;;;;44.08;23.63;;;8.30;99.90;;;;;;5111296;28;20537;-81
2023/04/10 00:48:55;;;;;;;45.90;24.02;;;8.30;99.90;;;;;;5111145;28;20058;-81
2023/04/10 00:51:21;;;;;;;50.53;24.15;;;8.30;99.90;;;;;;5110499;28;20031;-82
2023/04/10 00:53:53;;;;;;;45.38;23.83;;;8.20;99.90;;;;;;5094260;28;20392;-81
2023/04/10 00:56:19;;;;;;;49.10;23.73;;;8.20;99.90;;;;;;5093510;28;20035;-81
2023/04/10 00:58:45;;;;;;;43.80;24.48;;;8.10;99.90;;;;;;5110920;28;20480;-81
2023/04/10 01:01:11;;;;;;;;;;;8.10;99.90;;;;;;5110947;28;20028;-81
2023/04/10 01:03:38;;;;;;;47.50;26.20;;;8.00;99.90;;;;;;5111068;28;19923;-81
2023/04/10 01:06:33;;;;;;;51.13;26.17;;;8.00;99.90;;;;;;5077183;28;20473;-81
2023/04/10 01:09:14;;;;;;;49.75;25.77;;;7.90;99.90;;;;;;5093813;28;20446;-81
2023/04/10 01:12:14;;;;;;;52.55;26.85;;;7.90;99.90;;;;;;5110634;28;20031;-81
2023/04/10 01:15:05;;;;;;;51.22;26.98;;;7.80;99.90;;;;;;5111175;28;20040;-81
2023/04/10 01:17:41;;;;;;;50.03;27.65;;;7.70;99.90;;;;;;5111016;28;20725;-81
2023/04/10 01:20:15;;;;;;;54.50;28.90;;;7.70;99.90;;;;;;5094028;28;20376;-81
2023/04/10 01:23:01;;;;;;;48.42;26.23;;;7.70;99.90;;;;;;5111036;28;20040;-81
2023/04/10 01:25:52;;;;;;;54.85;27.85;;;7.60;99.90;;;;;;5109069;28;20038;-81
2023/04/10 01:28:18;;;;;;;53.90;27.63;;;7.60;99.90;;;;;;5110299;28;20043;-81
2023/04/10 01:30:46;;;;;;;55.20;28.57;;;7.60;99.90;;;;;;5110583;28;20426;-81
2023/04/10 01:33:18;;;;;;;63.90;28.88;;;7.50;99.90;;;;;;5111241;28;20061;-81
2023/04/10 01:35:51;;;;;;;53.72;28.23;;;7.60;99.90;;;;;;5109957;28;20032;-81
2023/04/10 01:38:19;;;;;;;50.80;28.05;;;7.60;99.90;;;;;;5093798;28;20044;-81
2023/04/10 01:40:50;;;;;;;54.58;29.00;;;7.50;99.90;;;;;;5110938;28;20375;-81
2023/04/10 01:43:16;;;;;;;58.60;28.15;;;7.50;99.90;;;;;;5093226;28;20044;-81
2023/04/10 01:45:45;;;;;;;55.08;28.73;;;7.50;99.90;;;;;;5094163;28;20027;-81
2023/04/10 01:48:11;;;;;;;58.63;29.05;;;7.50;99.90;;;;;;5110469;28;20039;-81
2023/04/10 01:50:38;;;;;;;56.42;29.73;;;7.50;99.90;;;;;;5076915;28;20062;-81
2023/04/10 01:53:06;;;;;;;62.65;30.27;;;7.40;99.90;;;;;;5075710;28;20043;-81
2023/04/10 01:55:32;;;;;;;59.45;30.13;;;7.40;99.90;;;;;;5110110;28;20122;-82
2023/04/10 01:58:00;;;;;;;61.60;29.42;;;7.30;99.90;;;;;;5110504;28;20035;-81
2023/04/10 02:00:26;;;;;;;60.13;30.00;;;7.30;99.90;;;;;;5092949;28;20040;-81
2023/04/10 02:02:52;;;;;;;61.22;31.70;;;7.30;99.90;;;;;;5110127;28;20032;-82
2023/04/10 02:05:19;;;;;;;60.67;31.08;;;7.30;99.90;;;;;;5110078;28;20488;-81
2023/04/10 02:07:58;;;;;;;;;;;7.30;99.90;;;;;;5093918;28;20043;-81
2023/04/10 02:10:30;;;;;;;65.43;33.85;;;7.30;99.90;;;;;;5110460;28;19915;-81
2023/04/10 02:13:03;;;;;;;59.33;31.40;;;7.30;99.90;;;;;;5110641;28;20043;-81
2023/04/10 02:15:31;;;;;;;62.25;30.90;;;7.30;99.90;;;;;;5110004;28;20353;-81
2023/04/10 02:17:58;;;;;;;57.15;31.05;;;7.30;99.90;;;;;;5110046;28;20052;-81
2023/04/10 02:20:25;;;;;;;54.85;29.52;;;7.20;99.90;;;;;;5109877;28;20051;-81
2023/04/10 02:22:52;;;;;;;58.72;30.48;;;7.20;99.90;;;;;;5092976;28;20027;-81
2023/04/10 02:25:18;;;;;;;62.78;32.60;;;7.20;99.90;;;;;;5108926;28;20115;-81
2023/04/10 02:27:44;;;;;;;55.92;30.63;;;7.20;99.90;;;;;;5092388;28;20035;-81
2023/04/10 02:30:10;;;;;;;56.83;30.25;;;7.20;99.90;;;;;;5106738;28;20039;-81
2023/04/10 02:32:36;;;;;;;58.72;30.20;;;7.20;99.90;;;;;;5109548;28;20511;-81
2023/04/10 02:35:02;;;;;;;58.28;30.02;;;7.20;99.90;;;;;;5108961;28;20114;-82
2023/04/10 02:37:28;;;;;;;55.28;29.35;;;7.20;99.90;;;;;;5108888;28;20130;-82
2023/04/10 02:39:54;;;;;;;56.20;30.92;;;7.10;99.90;;;;;;5092337;28;20503;-82
2023/04/10 02:42:20;;;;;;;60.22;30.65;;;7.20;99.90;;;;;;5074498;28;20110;-82
2023/04/10 02:44:47;;;;;;;58.95;29.83;;;7.20;99.90;;;;;;5091934;28;20052;-82
2023/04/10 02:47:12;;;;;;;59.42;30.48;;;7.20;99.90;;;;;;5108583;28;20039;-82
2023/04/10 02:49:38;;;;;;;52.38;27.15;;;7.20;99.90;;;;;;5075306;28;20036;-82
2023/04/10 02:52:04;;;;;;;56.70;29.27;;;7.10;99.90;;;;;;5091784;28;20407;-82
2023/04/10 02:54:30;;;;;;;60.10;29.10;;;7.10;99.90;;;;;;5075052;28;20559;-82
2023/04/10 02:56:56;;;;;;;56.55;29.52;;;7.10;99.90;;;;;;5092112;28;20051;-82
2023/04/10 02:59:22;;;;;;;55.17;28.50;;;7.20;99.90;;;;;;5108456;28;20043;-82
2023/04/10 03:01:49;;;;;;;52.92;30.30;;;7.10;99.90;;;;;;5108733;28;20038;-82
2023/04/10 03:04:14;;;;;;;;;;;7.20;99.90;;;;;;5108860;28;20118;-82
2023/04/10 03:06:40;;;;;;;54.08;29.15;;;7.20;99.90;;;;;;5091670;28;20010;-82
2023/04/10 03:09:06;;;;;;;49.90;28.20;;;7.20;99.90;;;;;;5091927;28;20058;-82
2023/04/10 03:11:32;;;;;;;56.28;28.63;;;7.20;99.90;;;;;;5108294;28;20277;-82
2023/04/10 03:13:57;;;;;;;52.85;28.98;;;7.30;99.90;;;;;;5108806;28;20066;-82
2023/04/10 03:16:23;;;;;;;48.08;27.02;;;7.20;99.90;;;;;;5091857;28;20100;-82
2023/04/10 03:18:49;;;;;;;52.22;27.48;;;7.20;99.90;;;;;;5091804;28;20043;-82
2023/04/10 03:21:15;;;;;;;50.57;27.87;;;7.20;99.90;;;;;;5091242;28;20038;-82
2023/04/10 03:23:41;;;;;;;51.38;26.67;;;7.20;99.90;;;;;;5091792;28;20368;-82
2023/04/10 03:26:07;;;;;;;52.10;27.60;;;7.20;99.90;;;;;;5091604;28;20563;-82
2023/04/10 03:28:35;;;;;;;49.97;27.42;;;7.20;99.90;;;;;;5091373;28;20395;-82
2023/04/10 03:31:02;;;;;;;49.90;26.92;;;7.20;99.90;;;;;;5075285;28;20047;-82
2023/04/10 03:33:28;;;;;;;46.28;26.48;;;7.20;99.90;;;;;;5090862;28;20055;-82
2023/04/10 03:35:53;;;;;;;48.33;26.13;;;7.20;99.90;;;;;;5108278;28;20403;-82
2023/04/10 03:38:19;;;;;;;50.97;25.38;;;7.20;99.90;;;;;;5107617;28;20491;-82
2023/04/10 03:40:45;;;;;;;53.22;28.25;;;7.20;99.90;;;;;;5108753;28;20032;-82
2023/04/10 03:43:11;;;;;;;50.40;27.33;;;7.20;99.90;;;;;;5091326;28;20096;-82
2023/04/10 03:45:36;;;;;;;48.20;26.88;;;7.40;99.90;;;;;;5107951;28;20051;-82
2023/04/10 03:48:02;;;;;;;47.90;27.37;;;7.20;99.90;;;;;;5091491;28;20062;-82
2023/04/10 03:50:28;;;;;;;48.85;25.75;;;7.20;99.90;;;;;;5107984;28;20327;-82
2023/04/10 03:52:54;;;;;;;51.60;28.27;;;7.20;99.90;;;;;;5072751;28;20395;-82
2023/04/10 03:55:20;;;;;;;46.90;27.50;;;7.20;99.90;;;;;;5093552;28;20285;-82
2023/04/10 03:57:47;;;;;;;47.70;25.65;;;7.20;99.90;;;;;;5095321;28;20044;-82
2023/04/10 04:00:14;;;;;;;49.15;27.58;;;7.10;99.90;;;;;;5095382;28;20023;-82
2023/04/10 04:02:40;;;;;;;46.58;24.45;;;7.10;99.90;;;;;;5095094;28;20544;-82
2023/04/10 04:05:06;;;;;;;52.42;28.23;;;7.20;99.90;;;;;;5112167;28;20046;-82
2023/04/10 04:07:32;;;;;;;51.95;27.85;;;7.10;99.90;;;;;;5077738;28;20424;-82
2023/04/10 04:09:59;;;;;;;52.42;27.48;;;7.10;99.90;;;;;;5095406;28;20081;-82
2023/04/10 04:12:25;;;;;;;49.35;26.27;;;7.10;99.90;;;;;;5111724;28;20506;-82
2023/04/10 04:14:50;;;;;;;51.40;27.48;;;7.10;99.90;;;;;;5094693;28;20043;-82
2023/04/10 04:17:19;;;;;;;54.50;28.85;;;7.10;99.90;;;;;;5094884;28;20079;-82
2023/04/10 04:19:45;;;;;;;55.30;27.70;;;7.10;99.90;;;;;;5094678;28;20032;-81
2023/04/10 04:22:12;;;;;;;48.53;28.13;;;7.10;99.90;;;;;;5095047;28;20037;-82
2023/04/10 04:24:37;;;;;;;45.55;26.70;;;7.00;99.90;;;;;;5111089;28;20273;-82
2023/04/10 04:27:03;;;;;;;51.00;26.93;;;7.00;99.90;;;;;;5111634;28;20472;-82
2023/04/10 04:29:29;;;;;;;56.85;29.85;;;7.00;99.90;;;;;;5094109;28;20141;-82
2023/04/10 04:31:54;;;;;;;54.47;29.27;;;7.10;99.90;;;;;;5077942;28;20040;-82
2023/04/10 04:34:20;;;;;;;53.23;28.87;;;7.10;99.90;;;;;;5077336;28;20340;-82
2023/04/10 04:36:49;;;;;;;49.43;24.83;;;7.10;99.90;;;;;;5111583;28;20564;-82
2023/04/10 04:39:15;;;;;;;57.92;29.13;;;7.10;99.90;;;;;;5111423;28;20304;-82
2023/04/10 04:41:41;;;;;;;51.55;28.27;;;7.10;99.90;;;;;;5111425;28;20364;-82
2023/04/10 04:44:06;;;;;;;55.37;29.10;;;7.10;99.90;;;;;;5077035;28;20152;-82
2023/04/10 04:46:32;;;;;;;54.50;28.83;;;7.10;99.90;;;;;;5110809;28;20043;-82
2023/04/10 04:48:58;;;;;;;48.33;27.70;;;7.10;99.90;;;;;;5111318;28;20077;-82
2023/04/10 04:51:24;;;;;;;56.40;28.73;;;7.20;99.90;;;;;;5093844;28;20285;-82
2023/04/10 04:53:50;;;;;;;53.97;29.42;;;7.20;99.90;;;;;;5111119;28;20114;-82
2023/04/10 04:56:16;;;;;;;46.28;24.95;;;7.20;99.90;;;;;;5110796;28;20122;-82
2023/04/10 04:58:41;;;;;;;55.20;28.55;;;7.30;99.90;;;;;;5110503;28;20039;-82
2023/04/10 05:01:07;;;;;;;50.63;29.00;;;7.30;99.90;;;;;;5093805;28;20142;-82
2023/04/10 05:03:36;;;;;;;56.47;27.92;;;7.30;99.90;;;;;;5076553;28;20395;-82
2023/04/10 05:06:02;;;;;;;60.40;31.85;;;7.30;99.90;;;;;;5110721;28;20031;-82
2023/04/10 05:08:27;;;;;;;54.47;30.08;;;7.40;99.90;;;;;;5093571;28;20060;-82
2023/04/10 05:10:53;;;;;;;58.67;31.07;;;7.40;99.90;;;;;;5094079;28;20046;-82
2023/04/10 05:13:19;;;;;;;61.67;31.27;;;7.40;99.90;;;;;;5094442;28;20800;-82
2023/04/10 05:15:44;;;;;;;61.33;30.97;;;7.50;99.90;;;;;;5076449;28;20289;-82
2023/04/10 05:18:12;;;;;;;61.10;31.43;;;7.50;99.90;;;;;;5110429;28;20305;-82
2023/04/10 05:20:38;;;;;;;58.78;29.50;;;7.50;99.90;;;;;;5110179;28;20361;-82
2023/04/10 05:23:04;;;;;;;57.75;28.77;;;7.60;99.90;;;;;;5093417;28;20547;-82
2023/04/10 05:25:30;;;;;;;56.90;29.20;;;7.60;99.90;;;;;;5092859;28;20436;-82
2023/04/10 05:27:55;;;;;;;58.72;30.65;;;7.70;99.90;;;;;;5110473;28;20296;-82
2023/04/10 05:30:21;;;;;;;51.97;26.42;;;7.70;99.90;;;;;;5093332;28;20044;-82
2023/04/10 05:32:47;;;;;;;61.53;30.98;;;7.70;99.90;;;;;;5093409;28;20036;-82
2023/04/10 05:35:13;;;;;;;60.07;30.47;;;7.80;99.90;;;;;;5093386;28;20031;-82
2023/04/10 05:37:38;;;;;;;49.85;27.23;;;7.70;99.90;;;;;;5092858;28;20039;-82
2023/04/10 05:40:05;;;;;;;51.60;25.70;;;7.80;99.90;;;;;;5110061;28;20039;-82
2023/04/10 05:42:30;;;;;;;;;;;7.80;99.90;;;;;;5110118;28;20027;-82
2023/04/10 05:44:56;;;;;;;54.45;26.38;;;7.90;99.90;;;;;;5092931;28;19930;-82
2023/04/10 05:47:22;;;;;;;53.05;27.48;;;7.90;99.90;;;;;;5074340;28;20516;-82
2023/04/10 05:49:47;;;;;;;50.93;26.77;;;8.00;99.90;;;;;;5075843;28;20510;-82
2023/04/10 05:52:13;;;;;;;50.27;26.90;;;8.00;99.90;;;;;;5092853;28;20365;-82
2023/04/10 05:54:39;;;;;;;47.90;24.43;;;8.10;99.90;;;;;;5092917;28;20042;-82
2023/04/10 05:57:04;;;;;;;48.97;26.10;;;8.10;99.90;;;;;;5109575;28;20285;-82
2023/04/10 05:59:30;;;;;;;51.80;26.95;;;8.20;99.90;;;;;;5092261;28;20043;-82
2023/04/10 06:01:56;;;;;;;50.05;26.40;;;8.20;99.90;;;;;;5109700;28;20031;-82
2023/04/10 06:04:22;;;;;;;47.88;25.85;;;8.20;99.90;;;;;;5092942;28;20047;-82
2023/04/10 06:06:48;;;;;;;47.85;25.40;;;8.30;99.90;;;;;;5092231;28;20032;-82
2023/04/10 06:09:14;;;;;;;50.83;25.02;;;8.40;99.90;;;;;;5092428;28;20050;-82
2023/04/10 06:11:40;;;;;;;50.05;24.55;;;8.30;99.90;;;;;;5109137;28;20036;-82
2023/04/10 06:14:06;;;;;;;42.95;21.50;;;8.50;99.90;;;;;;5092841;28;20424;-82
2023/04/10 06:16:31;;;;;;;44.75;23.65;;;8.60;99.90;;;;;;5092107;28;20043;-82
2023/04/10 06:18:57;;;;;;;44.83;23.42;;;8.80;99.90;;;;;;5075070;28;20036;-82
2023/04/10 06:21:23;;;;;;;40.38;23.00;;;8.80;99.90;;;;;;5109738;28;20039;-82
2023/04/10 06:23:48;;;;;;;38.08;19.27;;;9.30;99.90;;;;;;5108900;28;20031;-82
2023/04/10 06:26:14;;;;;;;38.33;22.17;;;9.00;99.90;;;;;;5109348;28;20071;-82
2023/04/10 06:28:41;;;;;;;34.80;20.38;;;9.20;99.90;;;;;;5108821;28;20288;-82
2023/04/10 06:31:06;;;;;;;35.38;19.85;;;9.30;99.90;;;;;;5075648;28;20383;-84
2023/04/10 06:33:35;;;;;;;37.85;18.25;;;9.30;99.90;;;;;;5092014;28;20039;-84
2023/04/10 06:36:02;;;;;;;31.48;17.73;;;9.40;99.90;;;;;;5075966;28;20044;-84
2023/04/10 06:38:29;;;;;;;33.28;19.40;;;9.50;99.90;;;;;;5108898;28;20043;-85
2023/04/10 06:40:54;;;;;;;33.65;18.92;;;9.60;99.90;;;;;;5108711;28;20031;-85
2023/04/10 06:43:20;;;;;;;35.17;19.30;;;9.70;99.90;;;;;;5108945;28;20051;-86
2023/04/10 06:45:46;;;;;;;34.70;18.85;;;9.80;99.90;;;;;;5075005;28;20126;-86
2023/04/10 06:48:12;;;;;;;35.00;18.73;;;9.80;99.90;;;;;;5092722;28;20032;-83
2023/04/10 06:50:37;;;;;;;36.50;19.52;;;10.00;99.90;;;;;;5093312;28;20085;-84
2023/04/10 06:53:03;;;;;;;37.13;19.77;;;10.00;99.90;;;;;;5076445;28;20035;-84
2023/04/10 06:55:29;;;;;;;30.10;15.98;;;10.20;99.90;;;;;;5076305;28;20285;-84
2023/04/10 06:57:55;;;;;;;31.10;16.58;;;10.40;99.90;;;;;;5092371;28;20498;-84
2023/04/10 07:00:22;;;;;;;33.63;17.38;;;10.70;99.90;;;;;;5075769;28;20027;-84
2023/04/10 07:02:48;;;;;;;29.95;16.65;;;11.20;99.90;;;;;;5109352;28;20090;-84
2023/04/10 07:05:15;;;;;;;34.25;18.85;;;11.50;99.90;;;;;;5058920;28;20082;-84
2023/04/10 07:07:41;;;;;;;32.38;17.38;;;11.50;99.90;;;;;;5110134;28;20373;-84
2023/04/10 07:10:07;;;;;;;29.98;17.90;;;11.40;99.90;;;;;;5076210;28;20038;-84
2023/04/10 07:12:33;;;;;;;30.48;17.33;;;11.30;99.90;;;;;;5093325;28;20032;-84
2023/04/10 07:14:59;;;;;;;28.42;16.35;;;11.30;99.90;;;;;;5076099;28;20628;-83
2023/04/10 07:17:25;;;;;;;29.63;16.40;;;11.40;99.90;;;;;;5076696;28;20031;-86
2023/04/10 07:19:50;;;;;;;30.20;16.88;;;11.50;99.90;;;;;;5075643;28;20350;-86
2023/04/10 07:22:16;;;;;;;31.30;16.80;;;11.70;99.90;;;;;;5076415;28;20509;-85
2023/04/10 07:24:42;;;;;;;27.02;16.05;;;11.90;99.90;;;;;;5092622;28;20118;-84
2023/04/10 07:27:07;;;;;;;28.55;16.45;;;12.00;99.90;;;;;;5072775;28;20032;-87
2023/04/10 07:29:33;;;;;;;28.88;16.67;;;12.10;99.90;;;;;;5059823;28;20039;-83
2023/04/10 07:31:59;;;;;;;32.38;17.48;;;12.20;99.90;;;;;;5063229;28;20107;-85
2023/04/10 07:34:25;;;;;;;30.42;16.17;;;12.30;99.90;;;;;;5080334;28;20036;-85
2023/04/10 07:36:51;;;;;;;34.92;20.05;;;12.50;99.90;;;;;;5080163;28;20060;-86
2023/04/10 07:39:17;;;;;;;34.13;18.67;;;12.80;99.90;;;;;;5097266;28;20039;-85
2023/04/10 07:41:43;;;;;;;33.42;19.33;;;13.00;99.90;;;;;;5095928;28;20035;-84
2023/04/10 07:44:09;;;;;;;31.92;17.50;;;13.30;99.90;;;;;;5096599;28;20621;-84
2023/04/10 07:46:35;;;;;;;35.70;20.20;;;13.50;99.90;;;;;;5079876;28;20043;-85
2023/04/10 07:49:00;;;;;;;25.13;14.95;;;13.60;99.90;;;;;;5062625;28;20487;-84
2023/04/10 07:51:27;;;;;;;28.13;16.77;;;13.90;99.90;;;;;;5096494;28;20054;-83
2023/04/10 07:53:54;;;;;;;28.77;18.45;;;14.20;99.90;;;;;;5112382;28;20041;-85
2023/04/10 07:56:20;;;;;;;29.50;17.60;;;14.60;99.90;;;;;;5079345;28;20123;-84
2023/04/10 07:58:47;;;;;;;26.33;16.00;;;14.70;99.90;;;;;;5095751;28;20086;-82
2023/04/10 08:01:13;;;;;;;26.73;15.60;;;14.90;99.90;;;;;;5112911;28;20027;-84
2023/04/10 08:03:42;;;;;;;29.15;16.98;;;15.10;99.90;;;;;;5096381;28;20061;-85
2023/04/10 08:06:09;;;;;;;26.25;14.18;;;15.10;99.90;;;;;;5096999;28;20384;-84
2023/04/10 08:08:39;;;;;;;24.88;14.63;;;15.40;99.90;;;;;;5113581;28;20122;-85
2023/04/10 08:11:26;;;;;;;20.30;12.40;;;15.50;99.90;;;;;;5062929;28;20453;-84
2023/04/10 08:13:53;;;;;;;25.35;16.13;;;15.60;99.80;;;;;;5094210;28;20515;-85
2023/04/10 08:16:26;;;;;;;28.30;17.98;;;15.20;99.90;;;;;;5096547;28;20407;-89
2023/04/10 08:18:52;;;;;;;24.50;15.93;;;14.90;99.90;;;;;;5095455;28;20057;-86
2023/04/10 08:21:20;;;;;;;29.38;17.67;;;15.00;99.90;;;;;;5096650;28;20074;-81
2023/04/10 08:23:46;;;;;;;27.92;17.58;;;15.10;99.90;;;;;;5113588;28;20514;-84
2023/04/10 08:26:12;;;;;;;29.02;17.45;;;15.00;99.90;;;;;;5079531;28;20032;-85
2023/04/10 08:28:38;;;;;;;25.30;14.27;;;15.10;99.90;;;;;;5063138;28;20048;-85
2023/04/10 08:31:04;;;;;;;28.92;16.40;;;15.60;99.90;;;;;;5079130;28;20127;-84
2023/04/10 08:33:30;;;;;;;36.20;19.15;;;16.00;99.40;;;;;;5096113;28;20092;-84
2023/04/10 08:35:56;;;;;;;29.35;17.48;;;16.00;99.90;;;;;;5078620;28;20487;-83
2023/04/10 08:38:23;;;;;;;32.33;18.85;;;16.10;99.70;;;;;;5078289;28;20075;-82
2023/04/10 08:40:50;;;;;;;25.80;16.10;;;16.20;99.90;;;;;;5094587;28;20141;-83
2023/04/10 08:43:16;;;;;;;26.85;17.05;;;16.40;99.90;;;;;;5095395;28;20091;-83
2023/04/10 08:45:42;;;;;;;34.80;20.60;;;16.60;99.90;;;;;;5112075;28;20035;-84
2023/04/10 08:48:10;;;;;;;32.42;19.08;;;16.80;99.40;;;;;;5078601;28;20058;-83
2023/04/10 08:50:40;;;;;;;24.52;15.63;;;16.80;98.20;;;;;;5095702;28;20043;-85
2023/04/10 08:53:12;;;;;;;25.65;16.23;;;16.70;98.50;;;;;;5095368;28;20041;-82
2023/04/10 08:55:39;;;;;;;34.17;20.55;;;16.60;98.10;;;;;;5095387;28;20035;-82
2023/04/10 08:58:06;;;;;;;27.35;17.63;;;16.40;98.80;;;;;;5109564;28;20047;-85
2023/04/10 09:00:38;;;;;;;30.65;16.35;;;16.60;98.80;;;;;;5111463;28;20067;-82
2023/04/10 09:03:10;;;;;;;31.70;17.98;;;16.80;98.80;;;;;;5110293;28;20055;-79
2023/04/10 09:05:36;;;;;;;30.38;17.85;;;16.90;98.40;;;;;;5077484;28;20123;-84
2023/04/10 09:08:03;;;;;;;26.55;15.88;;;17.00;98.10;;;;;;5076907;28;20085;-80
2023/04/10 09:10:29;;;;;;;29.48;16.90;;;16.90;97.90;;;;;;5111075;28;20487;-78
2023/04/10 09:12:55;;;;;;;27.90;16.05;;;16.90;98.30;;;;;;5094296;28;20069;-82
2023/04/10 09:15:20;;;;;;;30.48;16.70;;;16.90;97.50;;;;;;5061284;28;20057;-82
2023/04/10 09:18:02;;;;;;;25.85;15.23;;;17.00;97.80;;;;;;5077685;28;20036;-82
2023/04/10 09:20:30;;;;;;;25.55;16.05;;;17.30;98.20;;;;;;5111419;28;20071;-82
2023/04/10 09:22:56;;;;;;;23.00;14.85;;;17.60;97.90;;;;;;5110943;28;20466;-82
2023/04/10 09:25:33;;;;;;;19.95;12.43;;;17.70;97.20;;;;;;5077649;28;20109;-83
2023/04/10 09:28:05;;;;;;;21.20;13.52;;;17.90;97.30;;;;;;5110984;28;20089;-83
2023/04/10 09:30:39;;;;;;;19.50;12.65;;;17.70;97.30;;;;;;5094373;28;20565;-81
2023/04/10 09:33:31;;;;;;;20.00;11.40;;;17.40;97.40;;;;;;5091627;28;20507;-82
2023/04/10 09:36:02;;;;;;;17.33;10.77;;;17.20;97.80;;;;;;5071861;28;20051;-82
2023/04/10 09:38:28;;;;;;;19.50;12.13;;;17.00;97.80;;;;;;5093752;28;20054;-82
2023/04/10 09:41:06;;;;;;;23.58;13.93;;;17.10;97.60;;;;;;5093734;28;20089;-82
2023/04/10 09:43:31;;;;;;;21.50;13.15;;;17.40;97.10;;;;;;5076983;28;20055;-82
2023/04/10 09:45:57;;;;;;;21.38;12.77;;;17.40;97.40;;;;;;5059964;28;20035;-82
2023/04/10 09:48:24;;;;;;;21.13;11.23;;;17.40;97.40;;;;;;5077341;28;20043;-82
2023/04/10 09:50:50;;;;;;;19.92;11.43;;;17.70;96.90;;;;;;5094118;28;20042;-82
2023/04/10 09:53:20;;;;;;;;;;;17.90;96.60;;;;;;5093378;28;20058;-82
2023/04/10 09:55:49;;;;;;;19.48;11.80;;;17.80;96.00;;;;;;5111361;28;19919;-81
2023/04/10 09:58:16;;;;;;;16.20;10.50;;;17.70;96.70;;;;;;5093093;28;20118;-82
2023/04/10 10:00:47;;;;;;;18.23;11.13;;;17.60;96.20;;;;;;5110703;28;20100;-82
2023/04/10 10:03:15;;;;;;;14.55;8.88;;;17.80;96.40;;;;;;5076645;28;20043;-82
2023/04/10 10:05:47;;;;;;;17.50;10.10;;;17.90;96.90;;;;;;5094261;28;20387;-82
2023/04/10 10:08:14;;;;;;;15.98;8.73;;;17.90;96.40;;;;;;5110686;28;20128;-83
2023/04/10 10:10:46;;;;;;;14.00;8.93;;;17.90;96.30;;;;;;5077156;28;20168;-82
2023/04/10 10:13:36;;;;;;;13.65;8.88;;;18.10;96.30;;;;;;5094102;28;20043;-82
2023/04/10 10:16:35;;;;;;;15.82;9.05;;;18.20;96.10;;;;;;5093347;28;20554;-82
2023/04/10 10:19:30;;;;;;;15.35;9.68;;;18.30;96.20;;;;;;5110142;28;20071;-82
2023/04/10 10:21:59;;;;;;;13.35;8.43;;;18.30;95.90;;;;;;5093270;28;20188;-82
2023/04/10 10:24:26;;;;;;;11.65;7.32;;;18.30;96.50;;;;;;5093668;28;20031;-82
2023/04/10 10:26:57;;;;;;;11.57;7.90;;;18.10;96.40;;;;;;5110698;28;20033;-82
2023/04/10 10:29:23;;;;;;;10.07;7.47;;;18.30;96.50;;;;;;5110437;28;20044;-82
2023/04/10 10:31:51;;;;;;;11.68;7.10;;;18.10;95.80;;;;;;5093776;28;20394;-82
2023/04/10 10:34:17;;;;;;;13.88;6.90;;;17.90;96.10;;;;;;5059634;28;20437;-82
2023/04/10 10:36:43;;;;;;;;;;;17.90;95.80;;;;;;5076657;28;20036;-82
2023/04/10 10:39:40;;;;;;;10.35;6.80;;;17.80;95.60;;;;;;5075696;28;20356;-82
2023/04/10 10:42:26;;;;;;;10.52;7.18;;;17.30;96.00;;;;;;5093415;28;20503;-82
2023/04/10 10:45:08;;;;;;;10.27;6.32;;;17.10;96.30;;;;;;5109956;28;20055;-82
2023/04/10 10:47:44;;;;;;;12.20;7.45;;;17.00;96.60;;;;;;5093273;28;20042;-82
2023/04/10 10:50:09;;;;;;;11.93;6.85;;;16.90;96.50;;;;;;5092760;28;20050;-82
2023/04/10 10:52:44;;;;;;;10.73;6.13;;;16.80;97.10;;;;;;5093776;28;20035;-82
2023/04/10 10:55:24;;;;;;;12.35;6.97;;;16.50;97.70;;;;;;5090825;28;20032;-82
2023/04/10 10:57:51;;;;;;;11.80;7.15;;;16.50;97.20;;;;;;5110288;28;20040;-82
2023/04/10 11:00:17;;;;;;;12.32;7.53;;;16.50;97.20;;;;;;5092560;28;20040;-82
2023/04/10 11:02:43;;;;;;;10.27;6.43;;;16.60;97.30;;;;;;5109821;28;20039;-83
2023/04/10 11:05:09;;;;;;;9.20;5.82;;;16.60;97.90;;;;;;5109364;28;20034;-82
2023/04/10 11:07:57;;;;;;;8.32;5.45;;;16.60;97.30;;;;;;5093238;28;20027;-83
2023/04/10 11:11:04;;;;;;;7.63;5.35;;;16.70;96.70;;;;;;5092456;28;20684;-83
2023/04/10 11:13:34;;;;;;;9.18;5.47;;;16.70;96.70;;;;;;5092804;28;20050;-83
2023/04/10 11:16:01;;;;;;;8.35;5.85;;;16.60;97.10;;;;;;5092993;28;20507;-82
2023/04/10 11:18:46;;;;;;;7.40;4.88;;;16.70;96.70;;;;;;5075941;28;20040;-85
2023/04/10 11:21:15;;;;;;;7.85;4.75;;;16.70;97.20;;;;;;5109329;28;20498;-84
2023/04/10 11:24:02;;;;;;;6.80;4.57;;;16.70;96.80;;;;;;5092593;28;20035;-83
2023/04/10 11:26:38;;;;;;;8.10;5.25;;;16.80;97.60;;;;;;5109175;28;20035;-85
2023/04/10 11:29:19;;;;;;;7.13;4.10;;;16.80;97.40;;;;;;5092853;28;20057;-84
2023/04/10 11:31:46;;;;;;;7.45;4.38;;;16.90;96.70;;;;;;5092731;28;20476;-84
2023/04/10 11:34:12;;;;;;;9.70;5.32;;;16.80;97.40;;;;;;5092449;28;20063;-83
2023/04/10 11:36:39;;;;;;;7.28;3.88;;;16.70;97.70;;;;;;5093121;28;20474;-83
2023/04/10 11:39:13;;;;;;;6.95;4.13;;;16.70;96.70;;;;;;5092521;28;20057;-84
2023/04/10 11:41:49;;;;;;;6.63;4.30;;;16.80;96.70;;;;;;5110088;28;20031;-83
2023/04/10 11:44:19;;;;;;;7.22;4.05;;;16.80;96.40;;;;;;5092286;28;20437;-83
2023/04/10 11:46:46;;;;;;;6.38;3.47;;;16.80;96.80;;;;;;5092941;28;20480;-83
2023/04/10 11:49:19;;;;;;;6.32;3.67;;;16.60;97.30;;;;;;5075990;28;20035;-83
2023/04/10 11:51:47;;;;;;;6.00;4.53;;;16.50;97.00;;;;;;5092360;28;20092;-83
2023/04/10 11:54:21;;;;;;;6.18;3.88;;;16.50;97.00;;;;;;5092284;28;20099;-83
2023/04/10 11:57:02;;;;;;;9.23;4.28;;;16.50;97.20;;;;;;5092404;28;20032;-84
2023/04/10 11:59:29;;;;;;;5.97;3.65;;;16.60;97.10;;;;;;5108990;28;20112;-83
2023/04/10 12:02:10;;;;;;;6.72;3.28;;;16.60;96.80;;;;;;5092608;28;20128;-83
2023/04/10 12:04:36;;;;;;;5.90;3.80;;;16.90;97.10;;;;;;5092818;28;20031;-83
2023/04/10 12:07:02;;;;;;;5.20;3.58;;;17.10;97.50;;;;;;5092819;28;20118;-83
2023/04/10 12:09:28;;;;;;;5.45;3.67;;;17.30;96.40;;;;;;5092057;28;20032;-84
2023/04/10 12:11:59;;;;;;;5.97;3.60;;;17.30;96.40;;;;;;5109358;28;20089;-84
2023/04/10 12:14:34;;;;;;;5.28;3.35;;;17.50;96.70;;;;;;5075720;28;20039;-83
2023/04/10 12:17:01;;;;;;;5.47;3.20;;;17.60;96.60;;;;;;5112745;28;20067;-83
2023/04/10 12:19:28;;;;;;;5.43;3.22;;;17.90;96.30;;;;;;5112667;28;20478;-83
2023/04/10 12:21:54;;;;;;;;;;;18.00;95.60;;;;;;5096738;28;20028;-83
2023/04/10 12:24:46;;;;;;;4.18;2.88;;;18.40;95.90;;;;;;5095817;28;19934;-83
2023/04/10 12:27:20;;;;;;;7.28;3.35;;;18.70;94.80;;;;;;5112653;28;20040;-83
2023/04/10 12:29:47;;;;;;;4.43;3.05;;;18.90;94.90;;;;;;5113078;28;20043;-83
2023/04/10 12:32:13;;;;;;;4.38;2.97;;;19.00;94.70;;;;;;5079186;28;20035;-83
2023/04/10 12:34:39;;;;;;;3.67;2.38;;;18.80;95.50;;;;;;5096341;28;20031;-83
2023/04/10 12:37:06;;;;;;;4.38;2.90;;;18.70;95.00;;;;;;5112844;28;20098;-83
2023/04/10 12:39:32;;;;;;;4.88;3.03;;;18.50;95.00;;;;;;5078822;28;20109;-84
2023/04/10 12:42:21;;;;;;;6.75;3.47;;;18.20;95.80;;;;;;5095418;28;20499;-83
2023/04/10 12:44:53;;;;;;;5.28;2.70;;;18.10;96.20;;;;;;5094320;28;20058;-86